createdAt,value
2022-08-12T00:00:43.384Z,21.10
2022-08-12T00:03:12.258Z,21.10
2022-08-12T00:06:04.815Z,21.10
2022-08-12T00:08:36.939Z,21.10
2022-08-12T00:11:09.852Z,21.10
2022-08-12T00:13:43.109Z,21.10
2022-08-12T00:16:13.153Z,21.00
2022-08-12T00:18:43.336Z,21.00
2022-08-12T00:21:15.351Z,20.90
2022-08-12T00:23:43.178Z,20.90
2022-08-12T00:26:22.668Z,20.90
2022-08-12T00:28:54.797Z,20.90
2022-08-12T00:31:25.136Z,20.90
2022-08-12T00:33:59.369Z,20.80
2022-08-12T00:36:34.803Z,20.70
2022-08-12T00:39:04.583Z,20.70
2022-08-12T00:41:32.293Z,20.70
2022-08-12T00:44:02.834Z,20.70
2022-08-12T00:46:44.717Z,20.70
2022-08-12T00:49:14.080Z,20.70
2022-08-12T00:51:45.853Z,20.70
2022-08-12T00:54:13.714Z,20.70
2022-08-12T00:56:42.367Z,20.60
2022-08-12T00:59:18.859Z,20.60
2022-08-12T01:02:11.786Z,20.50
2022-08-12T01:04:43.940Z,20.50
2022-08-12T01:07:14.235Z,20.50
2022-08-12T01:09:47.005Z,20.50
2022-08-12T01:12:15.774Z,20.50
2022-08-12T01:14:44.015Z,20.50
2022-08-12T01:17:12.407Z,20.40
2022-08-12T01:19:41.300Z,20.40
2022-08-12T01:22:34.383Z,20.40
2022-08-12T01:25:12.415Z,20.30
2022-08-12T01:27:42.399Z,20.30
2022-08-12T01:30:13.384Z,20.20
2022-08-12T01:32:42.228Z,20.30
2022-08-12T01:35:14.974Z,20.20
2022-08-12T01:38:06.961Z,20.20
2022-08-12T01:40:42.540Z,20.20
2022-08-12T01:43:20.550Z,20.20
2022-08-12T01:46:24.744Z,20.20
2022-08-12T01:49:29.896Z,20.10
2022-08-12T01:52:20.392Z,20.20
2022-08-12T01:54:55.821Z,20.10
2022-08-12T01:58:15.109Z,20.10
2022-08-12T02:00:55.377Z,20.10
2022-08-12T02:03:54.514Z,20.00
2022-08-12T02:06:32.775Z,20.00
2022-08-12T02:09:04.112Z,19.80
2022-08-12T02:11:35.890Z,19.90
2022-08-12T02:14:39.918Z,19.90
2022-08-12T02:17:56.298Z,19.90
2022-08-12T02:20:52.913Z,19.90
2022-08-12T02:23:25.890Z,19.90
2022-08-12T02:25:59.168Z,19.90
2022-08-12T02:28:27.968Z,19.80
2022-08-12T02:31:04.356Z,19.80
2022-08-12T02:33:37.439Z,19.80
2022-08-12T02:36:05.830Z,19.80
2022-08-12T02:38:35.903Z,19.70
2022-08-12T02:41:05.415Z,19.70
2022-08-12T02:44:04.541Z,19.70
2022-08-12T02:46:34.118Z,19.50
2022-08-12T02:49:22.636Z,19.60
2022-08-12T02:51:51.080Z,19.60
2022-08-12T02:54:20.062Z,19.50
2022-08-12T02:56:50.713Z,19.50
2022-08-12T02:59:22.505Z,19.40
2022-08-12T03:02:05.380Z,19.40
2022-08-12T03:05:09.700Z,19.40
2022-08-12T03:07:56.094Z,19.40
2022-08-12T03:10:34.706Z,19.40
2022-08-12T03:13:08.583Z,19.30
2022-08-12T03:15:35.952Z,19.30
2022-08-12T03:18:45.819Z,19.30
2022-08-12T03:21:53.029Z,19.30
2022-08-12T03:24:16.402Z,19.30
2022-08-12T03:26:47.909Z,19.30
2022-08-12T03:29:17.765Z,19.20
2022-08-12T03:31:54.341Z,19.20
2022-08-12T03:34:26.499Z,19.20
2022-08-12T03:36:56.799Z,19.20
2022-08-12T03:39:36.071Z,19.20
2022-08-12T03:42:28.404Z,19.20
2022-08-12T03:45:22.098Z,19.10
2022-08-12T03:48:18.639Z,19.10
2022-08-12T03:50:49.824Z,19.10
2022-08-12T03:53:25.830Z,19.20
2022-08-12T03:55:54.502Z,19.10
2022-08-12T03:58:22.441Z,19.20
2022-08-12T04:00:50.687Z,19.20
2022-08-12T04:03:19.328Z,19.20
2022-08-12T04:05:56.023Z,19.10
2022-08-12T04:08:28.304Z,19.00
2022-08-12T04:10:58.309Z,19.00
2022-08-12T04:13:25.869Z,19.00
2022-08-12T04:15:57.547Z,19.00
2022-08-12T04:18:25.458Z,19.00
2022-08-12T04:20:57.045Z,19.00
2022-08-12T04:23:26.113Z,19.00
2022-08-12T04:25:54.042Z,19.00
2022-08-12T04:28:30.821Z,19.00
2022-08-12T04:30:59.067Z,19.10
2022-08-12T04:33:29.033Z,19.00
2022-08-12T04:35:57.247Z,19.00
2022-08-12T04:38:25.694Z,19.00
2022-08-12T04:40:54.293Z,19.10
2022-08-12T04:44:01.021Z,19.10
2022-08-12T04:46:22.885Z,19.10
2022-08-12T04:48:53.392Z,19.10
2022-08-12T04:51:24.259Z,19.20
2022-08-12T04:53:54.150Z,19.20
2022-08-12T04:56:21.405Z,19.10
2022-08-12T04:58:52.568Z,19.10
2022-08-12T05:01:21.191Z,19.20
2022-08-12T05:03:51.059Z,19.20
2022-08-12T05:06:26.793Z,19.20
2022-08-12T05:08:58.399Z,19.20
2022-08-12T05:11:27.267Z,19.30
2022-08-12T05:13:59.509Z,19.40
2022-08-12T05:16:32.518Z,19.40
2022-08-12T05:19:04.759Z,19.40
2022-08-12T05:21:35.714Z,19.40
2022-08-12T05:24:03.828Z,19.40
2022-08-12T05:26:34.287Z,19.50
2022-08-12T05:29:09.159Z,19.50
2022-08-12T05:31:54.654Z,19.60
2022-08-12T05:34:26.671Z,19.60
2022-08-12T05:36:54.432Z,19.60
2022-08-12T05:39:24.388Z,19.70
2022-08-12T05:41:54.822Z,19.70
2022-08-12T05:44:22.714Z,19.80
2022-08-12T05:46:53.008Z,19.80
2022-08-12T05:49:23.001Z,19.80
2022-08-12T05:51:53.235Z,19.90
2022-08-12T05:54:31.008Z,19.90
2022-08-12T05:57:11.557Z,19.90
2022-08-12T05:59:39.098Z,20.00
2022-08-12T06:02:10.287Z,20.00
2022-08-12T06:04:43.422Z,20.10
2022-08-12T06:07:37.407Z,20.10
2022-08-12T06:10:03.071Z,20.20
2022-08-12T06:12:33.476Z,20.20
2022-08-12T06:15:03.916Z,20.20
2022-08-12T06:17:34.141Z,20.30
2022-08-12T06:20:27.433Z,20.30
2022-08-12T06:22:55.274Z,20.40
2022-08-12T06:25:23.565Z,20.40
2022-08-12T06:28:06.920Z,20.50
2022-08-12T06:30:39.920Z,20.50
2022-08-12T06:33:21.027Z,20.50
2022-08-12T06:35:58.699Z,20.60
2022-08-12T06:38:28.887Z,20.70
2022-08-12T06:40:58.849Z,20.70
2022-08-12T06:43:29.133Z,20.80
2022-08-12T06:46:25.009Z,20.80
2022-08-12T06:48:55.361Z,20.90
2022-08-12T06:51:25.323Z,20.90
2022-08-12T06:53:53.035Z,21.00
2022-08-12T06:56:21.149Z,21.00
2022-08-12T06:58:51.575Z,21.10
2022-08-12T07:01:20.781Z,21.20
2022-08-12T07:03:50.681Z,21.20
2022-08-12T07:06:21.339Z,21.30
2022-08-12T07:08:49.327Z,21.30
2022-08-12T07:11:17.359Z,21.40
2022-08-12T07:14:11.461Z,21.40
2022-08-12T07:16:37.992Z,21.50
2022-08-12T07:19:08.113Z,21.50
2022-08-12T07:21:59.993Z,21.60
2022-08-12T07:24:25.534Z,21.70
2022-08-12T07:26:55.997Z,21.70
2022-08-12T07:29:58.286Z,21.80
2022-08-12T07:32:14.956Z,21.80
2022-08-12T07:34:43.878Z,21.90
2022-08-12T07:37:13.094Z,21.90
2022-08-12T07:39:51.040Z,22.00
2022-08-12T07:42:29.271Z,22.10
2022-08-12T07:44:57.231Z,22.10
2022-08-12T07:47:25.263Z,22.20
2022-08-12T07:50:05.374Z,22.20
2022-08-12T07:52:45.160Z,22.30
2022-08-12T07:55:16.962Z,22.30
2022-08-12T07:57:56.198Z,22.40
2022-08-12T08:00:27.884Z,22.50
2022-08-12T08:02:57.621Z,22.50
2022-08-12T08:05:28.507Z,22.60
2022-08-12T08:07:56.563Z,22.70
2022-08-12T08:10:24.089Z,22.70
2022-08-12T08:12:57.541Z,22.80
2022-08-12T08:16:00.701Z,22.80
2022-08-12T08:18:26.952Z,22.90
2022-08-12T08:20:56.768Z,22.90
2022-08-12T08:23:34.953Z,23.00
2022-08-12T08:26:03.669Z,23.00
2022-08-12T08:28:32.159Z,23.10
2022-08-12T08:31:03.521Z,23.20
2022-08-12T08:34:09.533Z,23.20
2022-08-12T08:36:24.067Z,23.30
2022-08-12T08:38:53.211Z,23.30
2022-08-12T08:42:16.429Z,23.40
2022-08-12T08:44:18.565Z,23.40
2022-08-12T08:46:47.099Z,23.40
2022-08-12T08:49:15.213Z,23.40
2022-08-12T08:51:46.373Z,23.50
2022-08-12T08:54:13.726Z,23.50
2022-08-12T08:56:45.943Z,23.60
2022-08-12T08:59:14.269Z,23.60
2022-08-12T09:01:44.512Z,23.70
2022-08-12T09:05:13.646Z,23.70
2022-08-12T09:07:18.118Z,23.70
2022-08-12T09:15:41.703Z,23.90
2022-08-12T09:18:11.319Z,24.00
2022-08-12T09:20:43.201Z,24.00
2022-08-12T09:23:57.142Z,24.10
2022-08-12T09:26:04.309Z,24.10
2022-08-12T09:28:32.849Z,24.10
2022-08-12T09:31:02.908Z,24.20
2022-08-12T09:34:29.010Z,24.30
2022-08-12T09:36:30.660Z,24.30
2022-08-12T09:39:01.148Z,24.40
2022-08-12T09:42:08.450Z,24.40
2022-08-12T09:44:39.140Z,24.50
2022-08-12T09:47:10.659Z,24.50
2022-08-12T09:49:42.465Z,24.50
2022-08-12T09:52:13.346Z,24.50
2022-08-12T09:54:43.909Z,24.60
2022-08-12T09:58:50.355Z,24.60
2022-08-12T10:00:12.896Z,24.60
2022-08-12T10:03:07.995Z,24.70
2022-08-12T10:06:19.788Z,24.80
2022-08-12T10:08:52.146Z,24.90
2022-08-12T10:11:21.680Z,24.90
2022-08-12T10:13:54.316Z,24.90
2022-08-12T10:16:32.803Z,24.90
2022-08-12T10:19:06.477Z,25.00
2022-08-12T10:21:46.051Z,25.10
2022-08-12T10:24:19.942Z,25.10
2022-08-12T10:26:50.288Z,25.10
2022-08-12T10:30:03.875Z,25.10
2022-08-12T10:32:42.727Z,25.20
2022-08-12T10:35:13.405Z,25.30
2022-08-12T10:38:34.846Z,25.30
2022-08-12T10:40:34.111Z,25.40
2022-08-12T10:43:06.447Z,25.30
2022-08-12T10:45:38.195Z,25.40
2022-08-12T10:48:21.822Z,25.50
2022-08-12T10:51:01.587Z,25.50
2022-08-12T10:53:44.753Z,25.50
2022-08-12T10:56:18.153Z,25.50
2022-08-12T10:58:47.908Z,25.60
2022-08-12T11:01:49.419Z,25.70
2022-08-12T11:04:27.573Z,25.70
2022-08-12T11:07:05.240Z,25.80
2022-08-12T11:10:00.001Z,25.90
2022-08-12T11:12:59.431Z,25.90
2022-08-12T11:16:02.834Z,26.00
2022-08-12T11:18:18.991Z,26.00
2022-08-12T11:20:47.867Z,26.20
2022-08-12T11:23:24.954Z,26.30
2022-08-12T11:26:06.982Z,26.40
2022-08-12T11:28:39.081Z,26.60
2022-08-12T11:31:09.926Z,26.70
2022-08-12T11:34:04.656Z,26.80
2022-08-12T11:36:33.550Z,26.90
2022-08-12T11:39:08.136Z,27.00
2022-08-12T11:41:43.731Z,27.10
2022-08-12T11:44:35.418Z,27.10
2022-08-12T11:47:09.507Z,27.20
2022-08-12T11:49:37.822Z,27.30
2022-08-12T11:52:26.564Z,27.40
2022-08-12T11:54:54.346Z,27.50
2022-08-12T11:58:15.220Z,27.70
2022-08-12T12:03:04.427Z,28.00
2022-08-12T12:05:41.782Z,28.10
2022-08-12T12:08:37.445Z,28.10
2022-08-12T12:11:10.551Z,28.40
2022-08-12T12:14:07.855Z,28.50
2022-08-12T12:16:29.995Z,28.60
2022-08-12T12:18:59.655Z,28.70
2022-08-12T12:21:47.647Z,29.10
2022-08-12T12:24:22.479Z,29.30
2022-08-12T12:27:00.763Z,29.50
2022-08-12T12:30:18.007Z,29.80
2022-08-12T12:32:29.349Z,30.10
2022-08-12T12:35:14.637Z,30.10
2022-08-12T12:38:05.194Z,30.10
2022-08-12T12:40:43.984Z,30.00
2022-08-12T12:43:13.469Z,30.20
2022-08-12T12:45:46.423Z,30.50
2022-08-12T12:48:21.558Z,30.80
2022-08-12T12:51:04.979Z,30.90
2022-08-12T12:54:07.007Z,30.90
2022-08-12T12:56:34.514Z,31.10
2022-08-12T12:59:04.715Z,31.40
2022-08-12T13:01:41.855Z,31.70
2022-08-12T13:04:12.318Z,31.90
2022-08-12T13:06:41.004Z,32.10
2022-08-12T13:09:13.060Z,32.20
2022-08-12T13:11:44.579Z,32.20
2022-08-12T13:14:30.934Z,32.50
2022-08-12T13:16:59.928Z,32.60
2022-08-12T13:19:38.612Z,32.80
2022-08-12T13:22:20.335Z,32.70
2022-08-12T13:24:55.969Z,32.90
2022-08-12T13:27:28.401Z,32.90
2022-08-12T13:30:04.183Z,32.70
2022-08-12T13:32:35.084Z,32.40
2022-08-12T13:35:20.204Z,32.20
2022-08-12T13:37:58.010Z,32.00
2022-08-12T13:40:29.026Z,31.80
2022-08-12T13:42:57.608Z,31.70
2022-08-12T13:45:26.961Z,31.50
2022-08-12T13:48:06.441Z,31.20
2022-08-12T13:50:39.844Z,31.00
2022-08-12T13:53:23.764Z,30.80
2022-08-12T13:56:01.381Z,30.70
2022-08-12T13:58:33.023Z,30.60
2022-08-12T14:01:09.161Z,31.00
2022-08-12T14:03:51.078Z,31.70
2022-08-12T14:06:25.960Z,32.20
2022-08-12T14:09:17.365Z,32.60
2022-08-12T14:11:58.486Z,33.10
2022-08-12T14:14:36.451Z,33.60
2022-08-12T14:17:08.110Z,33.90
2022-08-12T14:19:48.610Z,34.30
2022-08-12T14:22:25.967Z,34.60
2022-08-12T14:24:54.961Z,34.90
2022-08-12T14:28:02.737Z,35.00
2022-08-12T14:30:17.145Z,35.00
2022-08-12T14:32:53.515Z,35.10
2022-08-12T14:35:21.689Z,35.20
2022-08-12T14:37:58.940Z,35.20
2022-08-12T14:40:29.116Z,35.10
2022-08-12T14:42:58.011Z,35.20
2022-08-12T14:45:44.411Z,35.30
2022-08-12T14:48:24.062Z,35.40
2022-08-12T14:52:48.316Z,35.50
2022-08-12T14:54:55.858Z,35.10
2022-08-12T14:59:57.947Z,33.80
2022-08-12T15:02:17.535Z,33.30
2022-08-12T15:04:47.656Z,33.00
2022-08-12T15:07:34.272Z,33.10
2022-08-12T15:10:06.927Z,33.40
2022-08-12T15:12:40.506Z,33.70
2022-08-12T15:15:10.549Z,33.60
2022-08-12T15:17:39.744Z,33.80
2022-08-12T15:20:31.888Z,33.80
2022-08-12T15:22:59.289Z,33.80
2022-08-12T15:25:39.934Z,33.70
2022-08-12T15:28:22.586Z,33.70
2022-08-12T15:30:54.755Z,33.80
2022-08-12T15:33:25.710Z,33.80
2022-08-12T15:36:19.577Z,33.80
2022-08-12T15:39:04.894Z,33.70
2022-08-12T15:41:49.049Z,33.70
2022-08-12T15:44:38.109Z,33.60
2022-08-12T15:47:16.277Z,33.70
2022-08-12T15:49:59.859Z,33.90
2022-08-12T15:52:35.323Z,33.90
2022-08-12T15:55:11.229Z,33.80
2022-08-12T15:57:44.735Z,34.00
2022-08-12T16:00:38.693Z,34.10
2022-08-12T16:03:08.392Z,34.10
2022-08-12T16:06:12.196Z,34.20
2022-08-12T16:08:34.905Z,34.20
2022-08-12T16:11:07.406Z,34.20
2022-08-12T16:13:44.611Z,34.30
2022-08-12T16:16:23.958Z,34.30
2022-08-12T16:19:09.587Z,34.20
2022-08-12T16:21:58.636Z,33.80
2022-08-12T16:24:27.324Z,33.50
2022-08-12T16:26:55.956Z,33.40
2022-08-12T16:29:23.826Z,33.30
2022-08-12T16:31:51.843Z,33.20
2022-08-12T16:34:26.177Z,33.10
2022-08-12T16:37:10.800Z,33.00
2022-08-12T16:40:01.734Z,33.00
2022-08-12T16:42:53.736Z,32.90
2022-08-12T16:46:05.195Z,32.70
2022-08-12T16:48:35.630Z,32.40
2022-08-12T16:51:17.089Z,32.30
2022-08-12T16:53:46.163Z,32.30
2022-08-12T16:56:15.601Z,32.30
2022-08-12T16:58:43.678Z,32.30
2022-08-12T17:01:14.440Z,32.30
2022-08-12T17:04:00.071Z,32.20
2022-08-12T17:06:28.165Z,32.20
2022-08-12T17:08:57.162Z,32.10
2022-08-12T17:11:28.306Z,32.00
2022-08-12T17:13:57.870Z,32.10
2022-08-12T17:16:29.961Z,32.10
2022-08-12T17:19:03.378Z,32.00
2022-08-12T17:21:51.855Z,32.00
2022-08-12T17:24:39.940Z,32.00
2022-08-12T17:27:16.377Z,31.90
2022-08-12T17:30:01.943Z,31.80
2022-08-12T17:32:33.199Z,31.60
2022-08-12T17:35:05.454Z,31.40
2022-08-12T17:37:35.397Z,31.30
2022-08-12T17:40:16.266Z,31.20
2022-08-12T17:42:51.284Z,31.10
2022-08-12T17:45:20.159Z,31.00
2022-08-12T17:48:01.650Z,30.90
2022-08-12T17:50:36.301Z,30.90
2022-08-12T17:53:07.950Z,30.80
2022-08-12T17:55:47.382Z,30.60
2022-08-12T17:58:18.401Z,30.40
2022-08-12T18:00:51.342Z,30.30
2022-08-12T18:04:04.447Z,30.20
2022-08-12T18:06:14.628Z,30.10
2022-08-12T18:08:54.801Z,29.80
2022-08-12T18:12:05.036Z,29.70
2022-08-12T18:14:27.662Z,29.50
2022-08-12T18:17:00.690Z,29.40
2022-08-12T18:20:04.048Z,29.20
2022-08-12T18:22:22.202Z,29.20
2022-08-12T18:25:04.749Z,29.00
2022-08-12T18:27:44.410Z,28.90
2022-08-12T18:30:20.502Z,28.70
2022-08-12T18:33:05.314Z,28.70
2022-08-12T18:35:53.420Z,28.50
2022-08-12T18:38:26.334Z,28.50
2022-08-12T18:40:55.459Z,28.30
2022-08-12T18:43:25.691Z,28.10
2022-08-12T18:46:01.338Z,28.10
2022-08-12T18:48:30.381Z,28.00
2022-08-12T18:51:10.588Z,27.90
2022-08-12T18:54:07.180Z,27.80
2022-08-12T18:56:39.797Z,27.70
2022-08-12T18:59:10.115Z,27.60
2022-08-12T19:02:20.830Z,27.50
2022-08-12T19:04:33.498Z,27.40
2022-08-12T19:07:04.091Z,27.30
2022-08-12T19:09:57.582Z,27.20
2022-08-12T19:12:24.159Z,27.20
2022-08-12T19:15:04.233Z,27.10
2022-08-12T19:17:47.525Z,27.00
2022-08-12T19:20:25.031Z,26.90
2022-08-12T19:23:02.072Z,26.80
2022-08-12T19:25:55.397Z,26.70
2022-08-12T19:28:36.503Z,26.70
2022-08-12T19:31:20.308Z,26.60
2022-08-12T19:34:14.591Z,26.60
2022-08-12T19:36:43.768Z,26.50
2022-08-12T19:39:15.363Z,26.40
2022-08-12T19:42:00.507Z,26.40
2022-08-12T19:44:32.556Z,26.30
2022-08-12T19:47:03.598Z,26.30
2022-08-12T19:49:31.440Z,26.30
2022-08-12T19:52:01.207Z,26.20
2022-08-12T19:54:30.451Z,26.20
2022-08-12T19:56:59.168Z,26.10
2022-08-12T19:59:42.941Z,26.10
2022-08-12T20:02:21.194Z,26.10
2022-08-12T20:06:06.997Z,26.00
2022-08-12T20:07:56.979Z,26.00
2022-08-12T20:10:37.649Z,25.90
2022-08-12T20:13:18.673Z,25.90
2022-08-12T20:15:50.937Z,25.80
2022-08-12T20:18:44.540Z,25.70
2022-08-12T20:21:24.579Z,25.70
2022-08-12T20:24:00.899Z,25.60
2022-08-12T20:26:30.453Z,25.70
2022-08-12T20:29:08.744Z,25.60
2022-08-12T20:31:37.626Z,25.60
2022-08-12T20:34:06.092Z,25.60
2022-08-12T20:36:41.703Z,25.60
2022-08-12T20:39:52.033Z,25.50
2022-08-12T20:42:10.068Z,25.50
2022-08-12T20:44:40.666Z,25.40
2022-08-12T20:47:17.997Z,25.40
2022-08-12T20:49:55.750Z,25.30
2022-08-12T20:52:29.955Z,25.30
2022-08-12T20:54:58.003Z,25.20
2022-08-12T20:57:38.069Z,25.10
2022-08-12T21:00:08.178Z,25.10
2022-08-12T21:02:38.381Z,25.10
2022-08-12T21:05:16.051Z,25.00
2022-08-12T21:07:47.818Z,25.00
2022-08-12T21:10:18.588Z,25.00
2022-08-12T21:12:48.292Z,24.90
2022-08-12T21:15:24.365Z,24.90
2022-08-12T21:18:11.679Z,24.90
2022-08-12T21:20:50.984Z,24.80
2022-08-12T21:23:19.101Z,24.70
2022-08-12T21:25:46.104Z,24.70
2022-08-12T21:28:16.179Z,24.60
2022-08-12T21:31:11.041Z,24.60
2022-08-12T21:33:58.548Z,24.50
2022-08-12T21:36:22.525Z,24.50
2022-08-12T21:39:18.230Z,24.40
2022-08-12T21:41:51.706Z,24.40
2022-08-12T21:44:24.770Z,24.30
2022-08-12T21:47:21.163Z,24.20
2022-08-12T21:49:53.994Z,24.20
2022-08-12T21:52:28.327Z,24.10
2022-08-12T21:55:04.428Z,24.00
2022-08-12T21:57:48.197Z,24.00
2022-08-12T22:00:19.571Z,24.00
2022-08-12T22:02:48.554Z,24.00
2022-08-12T22:05:15.390Z,24.00
2022-08-12T22:07:52.896Z,24.00
2022-08-12T22:10:28.346Z,23.90
2022-08-12T22:12:55.994Z,23.80
2022-08-12T22:15:23.320Z,23.80
2022-08-12T22:17:55.572Z,23.80
2022-08-12T22:20:23.765Z,23.70
2022-08-12T22:22:57.039Z,23.70
2022-08-12T22:25:24.311Z,23.60
2022-08-12T22:27:53.572Z,23.60
2022-08-12T22:30:21.672Z,23.60
2022-08-12T22:32:51.686Z,23.60
2022-08-12T22:35:24.241Z,23.60
2022-08-12T22:38:19.391Z,23.50
2022-08-12T22:40:50.873Z,23.50
2022-08-12T22:43:17.810Z,23.40
2022-08-12T22:45:56.144Z,23.50
2022-08-12T22:48:26.693Z,23.50
2022-08-12T22:50:53.583Z,23.50
2022-08-12T22:53:20.259Z,23.40
2022-08-12T22:56:00.450Z,23.40
2022-08-12T22:58:34.332Z,23.40
2022-08-12T23:01:02.426Z,23.30
2022-08-12T23:03:47.651Z,23.30
2022-08-12T23:06:16.565Z,23.40
2022-08-12T23:08:43.262Z,23.30
2022-08-12T23:11:10.193Z,23.30
2022-08-12T23:13:42.311Z,23.30
2022-08-12T23:16:28.422Z,23.30
2022-08-12T23:19:09.653Z,23.30
2022-08-12T23:22:04.393Z,23.20
2022-08-12T23:24:33.062Z,23.20
2022-08-12T23:27:03.457Z,23.10
2022-08-12T23:29:43.362Z,23.00
2022-08-12T23:32:36.083Z,22.60
2022-08-12T23:35:06.548Z,22.30
2022-08-12T23:37:47.036Z,22.10
2022-08-12T23:40:19.861Z,22.10
2022-08-12T23:42:51.580Z,22.20
2022-08-12T23:45:31.117Z,22.20
2022-08-12T23:48:01.844Z,22.20
2022-08-12T23:50:34.417Z,22.20
2022-08-12T23:53:05.437Z,22.10
2022-08-12T23:55:34.950Z,22.00
2022-08-12T23:58:23.168Z,22.00
